sensor_id;sensor_type;location;lat;lon;timestamp;P1;durP1;ratioP1;P2;durP2;ratioP2
70780;SDS011;59514;48.810;2.134;2023-06-22T00:01:08;2.40;;;2.17;;
70780;SDS011;59514;48.810;2.134;2023-06-22T00:03:33;2.37;;;2.00;;
70780;SDS011;59514;48.810;2.134;2023-06-22T00:05:58;2.13;;;1.80;;
70780;SDS011;59514;48.810;2.134;2023-06-22T00:08:23;2.00;;;1.90;;
70780;SDS011;59514;48.810;2.134;2023-06-22T00:10:49;1.80;;;1.60;;
70780;SDS011;59514;48.810;2.134;2023-06-22T00:13:14;2.30;;;2.10;;
70780;SDS011;59514;48.810;2.134;2023-06-22T00:15:40;2.15;;;1.70;;
70780;SDS011;59514;48.810;2.134;2023-06-22T00:18:08;1.88;;;1.77;;
70780;SDS011;59514;48.810;2.134;2023-06-22T00:20:34;3.63;;;2.13;;
70780;SDS011;59514;48.810;2.134;2023-06-22T00:23:02;2.22;;;1.90;;
70780;SDS011;59514;48.810;2.134;2023-06-22T00:25:31;2.67;;;1.92;;
70780;SDS011;59514;48.810;2.134;2023-06-22T00:27:56;1.90;;;1.80;;
70780;SDS011;59514;48.810;2.134;2023-06-22T00:30:21;3.50;;;1.77;;
70780;SDS011;59514;48.810;2.134;2023-06-22T00:32:47;2.27;;;2.07;;
70780;SDS011;59514;48.810;2.134;2023-06-22T00:35:12;1.80;;;1.70;;
70780;SDS011;59514;48.810;2.134;2023-06-22T00:37:38;2.80;;;2.00;;
70780;SDS011;59514;48.810;2.134;2023-06-22T00:40:03;2.75;;;1.92;;
70780;SDS011;59514;48.810;2.134;2023-06-22T00:42:30;2.10;;;1.90;;
70780;SDS011;59514;48.810;2.134;2023-06-22T00:44:55;2.30;;;2.10;;
70780;SDS011;59514;48.810;2.134;2023-06-22T00:47:20;2.10;;;1.90;;
70780;SDS011;59514;48.810;2.134;2023-06-22T00:49:47;2.03;;;1.80;;
70780;SDS011;59514;48.810;2.134;2023-06-22T00:52:13;1.75;;;1.65;;
70780;SDS011;59514;48.810;2.134;2023-06-22T00:54:40;2.63;;;2.00;;
70780;SDS011;59514;48.810;2.134;2023-06-22T00:57:05;2.20;;;2.00;;
70780;SDS011;59514;48.810;2.134;2023-06-22T00:59:35;2.58;;;1.77;;
70780;SDS011;59514;48.810;2.134;2023-06-22T01:02:01;2.47;;;2.28;;
70780;SDS011;59514;48.810;2.134;2023-06-22T01:04:34;2.03;;;1.93;;
70780;SDS011;59514;48.810;2.134;2023-06-22T01:10:30;2.10;;;1.98;;
70780;SDS011;59514;48.810;2.134;2023-06-22T01:12:30;2.88;;;1.90;;
70780;SDS011;59514;48.810;2.134;2023-06-22T01:14:58;2.20;;;2.00;;
70780;SDS011;59514;48.810;2.134;2023-06-22T01:17:25;2.10;;;1.88;;
70780;SDS011;59514;48.810;2.134;2023-06-22T01:19:54;2.25;;;1.90;;
70780;SDS011;59514;48.810;2.134;2023-06-22T01:22:23;2.60;;;2.40;;
70780;SDS011;59514;48.810;2.134;2023-06-22T01:30:10;2.33;;;2.13;;
70780;SDS011;59514;48.810;2.134;2023-06-22T01:32:36;2.92;;;2.10;;
70780;SDS011;59514;48.810;2.134;2023-06-22T01:35:03;2.40;;;2.20;;
70780;SDS011;59514;48.810;2.134;2023-06-22T01:37:29;4.95;;;2.00;;
70780;SDS011;59514;48.810;2.134;2023-06-22T01:39:56;2.80;;;2.50;;
70780;SDS011;59514;48.810;2.134;2023-06-22T01:42:23;2.50;;;1.70;;
70780;SDS011;59514;48.810;2.134;2023-06-22T01:44:49;2.13;;;2.03;;
70780;SDS011;59514;48.810;2.134;2023-06-22T01:47:14;2.20;;;1.83;;
70780;SDS011;59514;48.810;2.134;2023-06-22T01:49:40;2.78;;;2.10;;
70780;SDS011;59514;48.810;2.134;2023-06-22T01:52:06;2.15;;;2.00;;
70780;SDS011;59514;48.810;2.134;2023-06-22T01:54:31;2.20;;;2.03;;
70780;SDS011;59514;48.810;2.134;2023-06-22T01:56:57;4.17;;;2.07;;
70780;SDS011;59514;48.810;2.134;2023-06-22T01:59:25;2.40;;;2.10;;
70780;SDS011;59514;48.810;2.134;2023-06-22T02:02:09;3.42;;;2.35;;
70780;SDS011;59514;48.810;2.134;2023-06-22T02:04:36;2.50;;;2.15;;
70780;SDS011;59514;48.810;2.134;2023-06-22T02:07:03;2.65;;;2.45;;
70780;SDS011;59514;48.810;2.134;2023-06-22T02:09:30;3.72;;;2.70;;
70780;SDS011;59514;48.810;2.134;2023-06-22T02:11:56;3.83;;;2.33;;
70780;SDS011;59514;48.810;2.134;2023-06-22T02:14:23;3.05;;;2.30;;
70780;SDS011;59514;48.810;2.134;2023-06-22T02:16:49;2.50;;;2.30;;
70780;SDS011;59514;48.810;2.134;2023-06-22T02:19:15;2.88;;;2.40;;
70780;SDS011;59514;48.810;2.134;2023-06-22T02:21:41;2.30;;;2.10;;
70780;SDS011;59514;48.810;2.134;2023-06-22T02:24:06;1.80;;;1.70;;
70780;SDS011;59514;48.810;2.134;2023-06-22T02:26:31;2.10;;;1.90;;
70780;SDS011;59514;48.810;2.134;2023-06-22T02:28:57;2.70;;;2.03;;
70780;SDS011;59514;48.810;2.134;2023-06-22T02:31:22;3.93;;;2.20;;
70780;SDS011;59514;48.810;2.134;2023-06-22T02:33:47;2.30;;;2.10;;
70780;SDS011;59514;48.810;2.134;2023-06-22T02:36:14;2.67;;;2.10;;
70780;SDS011;59514;48.810;2.134;2023-06-22T02:38:43;2.00;;;1.90;;
70780;SDS011;59514;48.810;2.134;2023-06-22T02:41:13;5.72;;;2.53;;
70780;SDS011;59514;48.810;2.134;2023-06-22T02:43:39;2.50;;;2.05;;
70780;SDS011;59514;48.810;2.134;2023-06-22T02:46:05;2.93;;;2.37;;
70780;SDS011;59514;48.810;2.134;2023-06-22T02:48:30;2.83;;;2.30;;
70780;SDS011;59514;48.810;2.134;2023-06-22T02:50:55;2.73;;;1.93;;
70780;SDS011;59514;48.810;2.134;2023-06-22T02:53:20;2.73;;;2.17;;
70780;SDS011;59514;48.810;2.134;2023-06-22T02:55:46;2.33;;;2.13;;
70780;SDS011;59514;48.810;2.134;2023-06-22T02:58:11;2.50;;;2.30;;
70780;SDS011;59514;48.810;2.134;2023-06-22T03:00:36;2.23;;;2.03;;
70780;SDS011;59514;48.810;2.134;2023-06-22T03:03:01;2.50;;;2.30;;
70780;SDS011;59514;48.810;2.134;2023-06-22T03:05:26;2.73;;;2.50;;
70780;SDS011;59514;48.810;2.134;2023-06-22T03:07:52;2.70;;;2.50;;
70780;SDS011;59514;48.810;2.134;2023-06-22T03:10:17;3.07;;;2.20;;
70780;SDS011;59514;48.810;2.134;2023-06-22T03:12:42;2.40;;;2.20;;
70780;SDS011;59514;48.810;2.134;2023-06-22T03:15:09;2.60;;;2.17;;
70780;SDS011;59514;48.810;2.134;2023-06-22T03:17:35;3.65;;;2.53;;
70780;SDS011;59514;48.810;2.134;2023-06-22T03:20:00;2.75;;;2.55;;
70780;SDS011;59514;48.810;2.134;2023-06-22T03:22:26;3.40;;;2.70;;
70780;SDS011;59514;48.810;2.134;2023-06-22T03:24:51;3.00;;;2.70;;
70780;SDS011;59514;48.810;2.134;2023-06-22T03:27:16;3.08;;;2.30;;
70780;SDS011;59514;48.810;2.134;2023-06-22T03:29:41;4.17;;;2.60;;
70780;SDS011;59514;48.810;2.134;2023-06-22T03:32:07;2.80;;;2.60;;
70780;SDS011;59514;48.810;2.134;2023-06-22T03:34:32;3.23;;;2.93;;
70780;SDS011;59514;48.810;2.134;2023-06-22T03:37:04;2.17;;;2.00;;
70780;SDS011;59514;48.810;2.134;2023-06-22T03:39:29;3.60;;;2.75;;
70780;SDS011;59514;48.810;2.134;2023-06-22T03:41:54;3.80;;;3.40;;
70780;SDS011;59514;48.810;2.134;2023-06-22T03:44:19;3.20;;;3.00;;
70780;SDS011;59514;48.810;2.134;2023-06-22T03:46:45;3.00;;;2.70;;
70780;SDS011;59514;48.810;2.134;2023-06-22T03:49:10;4.43;;;3.00;;
70780;SDS011;59514;48.810;2.134;2023-06-22T03:51:35;3.37;;;3.07;;
70780;SDS011;59514;48.810;2.134;2023-06-22T03:54:00;3.13;;;2.90;;
70780;SDS011;59514;48.810;2.134;2023-06-22T03:56:26;4.72;;;2.88;;
70780;SDS011;59514;48.810;2.134;2023-06-22T03:58:51;4.47;;;3.43;;
70780;SDS011;59514;48.810;2.134;2023-06-22T04:01:16;2.97;;;2.67;;
70780;SDS011;59514;48.810;2.134;2023-06-22T04:03:42;3.28;;;2.97;;
70780;SDS011;59514;48.810;2.134;2023-06-22T04:06:07;3.15;;;2.53;;
70780;SDS011;59514;48.810;2.134;2023-06-22T04:08:32;2.85;;;2.65;;
70780;SDS011;59514;48.810;2.134;2023-06-22T04:10:57;2.60;;;2.30;;
70780;SDS011;59514;48.810;2.134;2023-06-22T04:13:23;3.47;;;2.73;;
70780;SDS011;59514;48.810;2.134;2023-06-22T04:15:48;3.10;;;2.73;;
70780;SDS011;59514;48.810;2.134;2023-06-22T04:18:13;3.13;;;2.75;;
70780;SDS011;59514;48.810;2.134;2023-06-22T04:20:39;2.50;;;2.23;;
70780;SDS011;59514;48.810;2.134;2023-06-22T04:23:04;2.72;;;2.35;;
70780;SDS011;59514;48.810;2.134;2023-06-22T04:25:29;2.60;;;2.40;;
70780;SDS011;59514;48.810;2.134;2023-06-22T04:27:54;3.07;;;2.57;;
70780;SDS011;59514;48.810;2.134;2023-06-22T04:30:20;3.25;;;2.95;;
70780;SDS011;59514;48.810;2.134;2023-06-22T04:32:45;2.67;;;2.47;;
70780;SDS011;59514;48.810;2.134;2023-06-22T04:35:10;3.37;;;3.07;;
70780;SDS011;59514;48.810;2.134;2023-06-22T04:37:36;3.22;;;2.70;;
70780;SDS011;59514;48.810;2.134;2023-06-22T04:40:01;3.22;;;2.80;;
70780;SDS011;59514;48.810;2.134;2023-06-22T04:42:29;4.78;;;3.40;;
70780;SDS011;59514;48.810;2.134;2023-06-22T04:44:55;3.97;;;2.55;;
70780;SDS011;59514;48.810;2.134;2023-06-22T04:47:20;4.53;;;3.10;;
70780;SDS011;59514;48.810;2.134;2023-06-22T04:49:46;3.07;;;2.77;;
70780;SDS011;59514;48.810;2.134;2023-06-22T04:52:11;2.70;;;2.50;;
70780;SDS011;59514;48.810;2.134;2023-06-22T04:54:37;2.53;;;2.33;;
70780;SDS011;59514;48.810;2.134;2023-06-22T04:57:03;3.47;;;3.17;;
70780;SDS011;59514;48.810;2.134;2023-06-22T04:59:30;3.00;;;2.67;;
70780;SDS011;59514;48.810;2.134;2023-06-22T05:01:56;2.83;;;2.47;;
70780;SDS011;59514;48.810;2.134;2023-06-22T05:04:22;3.17;;;2.88;;
70780;SDS011;59514;48.810;2.134;2023-06-22T05:06:48;9.15;;;8.35;;
70780;SDS011;59514;48.810;2.134;2023-06-22T05:09:13;4.35;;;3.95;;
70780;SDS011;59514;48.810;2.134;2023-06-22T05:11:38;3.57;;;3.27;;
70780;SDS011;59514;48.810;2.134;2023-06-22T05:14:03;3.30;;;3.10;;
70780;SDS011;59514;48.810;2.134;2023-06-22T05:16:29;3.57;;;3.27;;
70780;SDS011;59514;48.810;2.134;2023-06-22T05:18:54;3.13;;;2.80;;
70780;SDS011;59514;48.810;2.134;2023-06-22T05:21:23;3.33;;;3.03;;
70780;SDS011;59514;48.810;2.134;2023-06-22T05:23:49;3.20;;;2.85;;
70780;SDS011;59514;48.810;2.134;2023-06-22T05:26:14;3.50;;;3.20;;
70780;SDS011;59514;48.810;2.134;2023-06-22T05:28:40;3.53;;;3.23;;
70780;SDS011;59514;48.810;2.134;2023-06-22T05:31:05;3.00;;;2.80;;
70780;SDS011;59514;48.810;2.134;2023-06-22T05:33:30;3.30;;;3.10;;
70780;SDS011;59514;48.810;2.134;2023-06-22T05:35:55;3.77;;;3.47;;
70780;SDS011;59514;48.810;2.134;2023-06-22T05:38:20;2.93;;;2.63;;
70780;SDS011;59514;48.810;2.134;2023-06-22T05:40:46;4.73;;;3.17;;
70780;SDS011;59514;48.810;2.134;2023-06-22T05:43:11;3.30;;;3.00;;
70780;SDS011;59514;48.810;2.134;2023-06-22T05:45:36;4.87;;;3.30;;
70780;SDS011;59514;48.810;2.134;2023-06-22T05:48:01;4.87;;;3.97;;
70780;SDS011;59514;48.810;2.134;2023-06-22T05:50:26;3.70;;;3.40;;
70780;SDS011;59514;48.810;2.134;2023-06-22T05:52:52;3.87;;;3.57;;
70780;SDS011;59514;48.810;2.134;2023-06-22T05:55:17;5.43;;;3.90;;
70780;SDS011;59514;48.810;2.134;2023-06-22T05:57:43;5.47;;;3.80;;
70780;SDS011;59514;48.810;2.134;2023-06-22T06:00:09;4.57;;;4.18;;
70780;SDS011;59514;48.810;2.134;2023-06-22T06:02:36;5.07;;;3.72;;
70780;SDS011;59514;48.810;2.134;2023-06-22T06:05:01;4.17;;;3.77;;
70780;SDS011;59514;48.810;2.134;2023-06-22T06:07:27;5.00;;;4.30;;
70780;SDS011;59514;48.810;2.134;2023-06-22T06:09:53;5.22;;;4.07;;
70780;SDS011;59514;48.810;2.134;2023-06-22T06:12:18;7.00;;;4.77;;
70780;SDS011;59514;48.810;2.134;2023-06-22T06:14:43;5.07;;;4.57;;
70780;SDS011;59514;48.810;2.134;2023-06-22T06:17:08;6.50;;;4.87;;
70780;SDS011;59514;48.810;2.134;2023-06-22T06:19:33;6.87;;;4.73;;
70780;SDS011;59514;48.810;2.134;2023-06-22T06:21:59;6.57;;;5.53;;
70780;SDS011;59514;48.810;2.134;2023-06-22T06:24:25;6.70;;;5.90;;
70780;SDS011;59514;48.810;2.134;2023-06-22T06:26:50;7.63;;;5.60;;
70780;SDS011;59514;48.810;2.134;2023-06-22T06:29:15;5.88;;;5.13;;
70780;SDS011;59514;48.810;2.134;2023-06-22T06:31:41;5.63;;;5.03;;
70780;SDS011;59514;48.810;2.134;2023-06-22T06:34:06;6.23;;;5.43;;
70780;SDS011;59514;48.810;2.134;2023-06-22T06:36:31;8.27;;;6.37;;
70780;SDS011;59514;48.810;2.134;2023-06-22T06:38:57;7.07;;;6.37;;
70780;SDS011;59514;48.810;2.134;2023-06-22T06:41:22;6.75;;;5.53;;
70780;SDS011;59514;48.810;2.134;2023-06-22T06:43:48;6.40;;;5.38;;
70780;SDS011;59514;48.810;2.134;2023-06-22T06:46:13;6.05;;;5.45;;
70780;SDS011;59514;48.810;2.134;2023-06-22T06:48:38;7.77;;;6.03;;
70780;SDS011;59514;48.810;2.134;2023-06-22T06:51:04;6.50;;;5.85;;
70780;SDS011;59514;48.810;2.134;2023-06-22T06:53:30;8.27;;;7.47;;
70780;SDS011;59514;48.810;2.134;2023-06-22T06:55:55;7.37;;;6.47;;
70780;SDS011;59514;48.810;2.134;2023-06-22T06:58:20;9.35;;;7.80;;
70780;SDS011;59514;48.810;2.134;2023-06-22T07:00:47;11.10;;;9.25;;
70780;SDS011;59514;48.810;2.134;2023-06-22T07:03:13;9.40;;;7.93;;
70780;SDS011;59514;48.810;2.134;2023-06-22T07:05:38;11.50;;;8.23;;
70780;SDS011;59514;48.810;2.134;2023-06-22T07:08:03;11.30;;;9.80;;
70780;SDS011;59514;48.810;2.134;2023-06-22T07:10:29;12.02;;;9.88;;
70780;SDS011;59514;48.810;2.134;2023-06-22T07:12:54;10.48;;;9.48;;
70780;SDS011;59514;48.810;2.134;2023-06-22T07:15:19;12.87;;;9.87;;
70780;SDS011;59514;48.810;2.134;2023-06-22T07:17:46;11.07;;;9.65;;
70780;SDS011;59514;48.810;2.134;2023-06-22T07:20:11;12.57;;;11.00;;
70780;SDS011;59514;48.810;2.134;2023-06-22T07:22:37;10.82;;;9.73;;
70780;SDS011;59514;48.810;2.134;2023-06-22T07:25:03;10.20;;;9.15;;
70780;SDS011;59514;48.810;2.134;2023-06-22T07:27:37;13.82;;;11.60;;
70780;SDS011;59514;48.810;2.134;2023-06-22T07:30:03;11.55;;;9.80;;
70780;SDS011;59514;48.810;2.134;2023-06-22T07:32:28;12.73;;;11.40;;
70780;SDS011;59514;48.810;2.134;2023-06-22T07:34:54;12.83;;;10.23;;
70780;SDS011;59514;48.810;2.134;2023-06-22T07:37:19;12.27;;;9.93;;
70780;SDS011;59514;48.810;2.134;2023-06-22T07:39:44;13.80;;;11.67;;
70780;SDS011;59514;48.810;2.134;2023-06-22T07:42:09;10.30;;;9.30;;
70780;SDS011;59514;48.810;2.134;2023-06-22T07:44:35;13.20;;;10.60;;
70780;SDS011;59514;48.810;2.134;2023-06-22T07:47:00;13.47;;;11.97;;
70780;SDS011;59514;48.810;2.134;2023-06-22T07:49:25;14.10;;;12.57;;
70780;SDS011;59514;48.810;2.134;2023-06-22T07:51:50;12.87;;;11.57;;
70780;SDS011;59514;48.810;2.134;2023-06-22T07:54:15;14.77;;;11.33;;
70780;SDS011;59514;48.810;2.134;2023-06-22T07:56:42;14.02;;;12.30;;
70780;SDS011;59514;48.810;2.134;2023-06-22T07:59:08;17.05;;;13.18;;
70780;SDS011;59514;48.810;2.134;2023-06-22T08:01:33;17.93;;;14.63;;
70780;SDS011;59514;48.810;2.134;2023-06-22T08:03:58;19.27;;;15.50;;
70780;SDS011;59514;48.810;2.134;2023-06-22T08:06:24;14.93;;;12.73;;
70780;SDS011;59514;48.810;2.134;2023-06-22T08:08:49;19.37;;;15.10;;
70780;SDS011;59514;48.810;2.134;2023-06-22T08:11:14;16.37;;;13.40;;
70780;SDS011;59514;48.810;2.134;2023-06-22T08:13:39;18.50;;;14.73;;
70780;SDS011;59514;48.810;2.134;2023-06-22T08:16:05;19.80;;;16.17;;
70780;SDS011;59514;48.810;2.134;2023-06-22T08:18:30;19.50;;;15.67;;
70780;SDS011;59514;48.810;2.134;2023-06-22T08:20:55;16.08;;;13.90;;
70780;SDS011;59514;48.810;2.134;2023-06-22T08:23:21;18.33;;;15.07;;
70780;SDS011;59514;48.810;2.134;2023-06-22T08:25:46;17.73;;;15.83;;
70780;SDS011;59514;48.810;2.134;2023-06-22T08:28:13;17.80;;;14.60;;
70780;SDS011;59514;48.810;2.134;2023-06-22T08:30:38;16.95;;;13.35;;
70780;SDS011;59514;48.810;2.134;2023-06-22T08:33:03;17.53;;;13.83;;
70780;SDS011;59514;48.810;2.134;2023-06-22T08:35:29;17.70;;;14.60;;
70780;SDS011;59514;48.810;2.134;2023-06-22T08:37:54;17.65;;;15.05;;
70780;SDS011;59514;48.810;2.134;2023-06-22T08:40:22;19.98;;;15.95;;
70780;SDS011;59514;48.810;2.134;2023-06-22T08:42:47;18.35;;;16.02;;
70780;SDS011;59514;48.810;2.134;2023-06-22T08:45:13;17.70;;;15.82;;
70780;SDS011;59514;48.810;2.134;2023-06-22T08:47:39;17.55;;;14.82;;
70780;SDS011;59514;48.810;2.134;2023-06-22T08:50:05;18.90;;;16.30;;
70780;SDS011;59514;48.810;2.134;2023-06-22T08:52:30;20.40;;;16.45;;
70780;SDS011;59514;48.810;2.134;2023-06-22T08:54:56;21.02;;;18.00;;
70780;SDS011;59514;48.810;2.134;2023-06-22T08:57:21;20.00;;;17.40;;
70780;SDS011;59514;48.810;2.134;2023-06-22T08:59:46;21.37;;;16.77;;
70780;SDS011;59514;48.810;2.134;2023-06-22T09:02:12;21.90;;;17.70;;
70780;SDS011;59514;48.810;2.134;2023-06-22T09:04:37;20.50;;;16.70;;
70780;SDS011;59514;48.810;2.134;2023-06-22T09:07:02;23.07;;;17.50;;
70780;SDS011;59514;48.810;2.134;2023-06-22T09:09:28;21.42;;;17.83;;
70780;SDS011;59514;48.810;2.134;2023-06-22T09:11:53;21.07;;;16.80;;
70780;SDS011;59514;48.810;2.134;2023-06-22T09:14:18;21.07;;;16.80;;
70780;SDS011;59514;48.810;2.134;2023-06-22T09:16:43;21.50;;;17.27;;
70780;SDS011;59514;48.810;2.134;2023-06-22T09:19:09;19.67;;;16.47;;
70780;SDS011;59514;48.810;2.134;2023-06-22T09:21:34;20.43;;;17.10;;
70780;SDS011;59514;48.810;2.134;2023-06-22T09:23:59;21.90;;;16.93;;
70780;SDS011;59514;48.810;2.134;2023-06-22T09:26:24;19.40;;;15.43;;
70780;SDS011;59514;48.810;2.134;2023-06-22T09:28:50;17.63;;;15.23;;
70780;SDS011;59514;48.810;2.134;2023-06-22T09:31:15;19.45;;;14.77;;
70780;SDS011;59514;48.810;2.134;2023-06-22T09:33:41;20.40;;;16.08;;
70780;SDS011;59514;48.810;2.134;2023-06-22T09:36:07;20.45;;;15.90;;
70780;SDS011;59514;48.810;2.134;2023-06-22T09:38:35;18.57;;;14.77;;
70780;SDS011;59514;48.810;2.134;2023-06-22T09:41:01;15.90;;;14.25;;
70780;SDS011;59514;48.810;2.134;2023-06-22T09:43:26;18.97;;;13.90;;
70780;SDS011;59514;48.810;2.134;2023-06-22T09:45:52;17.88;;;14.07;;
70780;SDS011;59514;48.810;2.134;2023-06-22T09:48:17;16.93;;;13.47;;
70780;SDS011;59514;48.810;2.134;2023-06-22T09:50:42;15.80;;;13.75;;
70780;SDS011;59514;48.810;2.134;2023-06-22T09:53:07;16.87;;;14.03;;
70780;SDS011;59514;48.810;2.134;2023-06-22T09:55:33;19.20;;;14.40;;
70780;SDS011;59514;48.810;2.134;2023-06-22T09:57:58;18.17;;;14.20;;
70780;SDS011;59514;48.810;2.134;2023-06-22T10:00:23;17.27;;;13.27;;
70780;SDS011;59514;48.810;2.134;2023-06-22T10:02:48;13.53;;;12.13;;
70780;SDS011;59514;48.810;2.134;2023-06-22T10:05:14;13.55;;;11.63;;
70780;SDS011;59514;48.810;2.134;2023-06-22T10:07:39;12.93;;;11.53;;
70780;SDS011;59514;48.810;2.134;2023-06-22T10:10:07;15.57;;;12.15;;
70780;SDS011;59514;48.810;2.134;2023-06-22T10:12:33;16.10;;;13.30;;
70780;SDS011;59514;48.810;2.134;2023-06-22T10:14:58;14.73;;;12.93;;
70780;SDS011;59514;48.810;2.134;2023-06-22T10:17:23;14.07;;;12.10;;
70780;SDS011;59514;48.810;2.134;2023-06-22T10:19:48;14.60;;;12.93;;
70780;SDS011;59514;48.810;2.134;2023-06-22T10:22:13;13.37;;;11.97;;
70780;SDS011;59514;48.810;2.134;2023-06-22T10:24:39;13.40;;;11.67;;
70780;SDS011;59514;48.810;2.134;2023-06-22T10:27:09;13.23;;;11.80;;
70780;SDS011;59514;48.810;2.134;2023-06-22T10:29:34;15.45;;;13.13;;
70780;SDS011;59514;48.810;2.134;2023-06-22T10:32:00;14.50;;;12.73;;
70780;SDS011;59514;48.810;2.134;2023-06-22T10:34:25;13.60;;;12.20;;
70780;SDS011;59514;48.810;2.134;2023-06-22T10:36:50;13.93;;;12.00;;
70780;SDS011;59514;48.810;2.134;2023-06-22T10:39:15;13.47;;;12.07;;
70780;SDS011;59514;48.810;2.134;2023-06-22T10:41:40;14.27;;;12.63;;
70780;SDS011;59514;48.810;2.134;2023-06-22T10:44:06;14.37;;;12.97;;
70780;SDS011;59514;48.810;2.134;2023-06-22T10:46:31;13.70;;;12.33;;
70780;SDS011;59514;48.810;2.134;2023-06-22T10:48:56;14.43;;;13.03;;
70780;SDS011;59514;48.810;2.134;2023-06-22T10:51:23;14.63;;;13.18;;
70780;SDS011;59514;48.810;2.134;2023-06-22T10:53:49;13.00;;;11.70;;
70780;SDS011;59514;48.810;2.134;2023-06-22T10:56:15;14.00;;;10.75;;
70780;SDS011;59514;48.810;2.134;2023-06-22T10:58:41;13.00;;;10.63;;
70780;SDS011;59514;48.810;2.134;2023-06-22T11:01:06;11.87;;;10.47;;
70780;SDS011;59514;48.810;2.134;2023-06-22T11:03:31;11.60;;;10.10;;
70780;SDS011;59514;48.810;2.134;2023-06-22T11:05:56;11.10;;;9.73;;
70780;SDS011;59514;48.810;2.134;2023-06-22T11:08:21;11.83;;;10.37;;
70780;SDS011;59514;48.810;2.134;2023-06-22T11:10:47;11.50;;;10.23;;
70780;SDS011;59514;48.810;2.134;2023-06-22T11:13:12;10.67;;;9.63;;
70780;SDS011;59514;48.810;2.134;2023-06-22T11:15:37;10.03;;;9.03;;
70780;SDS011;59514;48.810;2.134;2023-06-22T11:18:03;9.82;;;8.93;;
70780;SDS011;59514;48.810;2.134;2023-06-22T11:20:30;9.27;;;8.32;;
70780;SDS011;59514;48.810;2.134;2023-06-22T11:22:55;9.60;;;8.70;;
70780;SDS011;59514;48.810;2.134;2023-06-22T11:25:20;10.23;;;8.68;;
70780;SDS011;59514;48.810;2.134;2023-06-22T11:27:46;10.67;;;9.57;;
70780;SDS011;59514;48.810;2.134;2023-06-22T11:30:11;8.30;;;7.60;;
70780;SDS011;59514;48.810;2.134;2023-06-22T11:32:36;9.43;;;8.53;;
70780;SDS011;59514;48.810;2.134;2023-06-22T11:35:01;11.03;;;9.73;;
70780;SDS011;59514;48.810;2.134;2023-06-22T11:37:27;11.07;;;8.97;;
70780;SDS011;59514;48.810;2.134;2023-06-22T11:39:52;9.77;;;8.77;;
70780;SDS011;59514;48.810;2.134;2023-06-22T11:42:19;9.70;;;8.70;;
70780;SDS011;59514;48.810;2.134;2023-06-22T11:44:45;8.57;;;7.70;;
70780;SDS011;59514;48.810;2.134;2023-06-22T11:47:10;9.33;;;8.43;;
70780;SDS011;59514;48.810;2.134;2023-06-22T11:49:35;6.87;;;6.27;;
70780;SDS011;59514;48.810;2.134;2023-06-22T11:52:00;7.67;;;6.97;;
70780;SDS011;59514;48.810;2.134;2023-06-22T11:54:25;7.30;;;6.60;;
70780;SDS011;59514;48.810;2.134;2023-06-22T11:56:51;8.17;;;7.07;;
70780;SDS011;59514;48.810;2.134;2023-06-22T11:59:16;8.17;;;6.57;;
70780;SDS011;59514;48.810;2.134;2023-06-22T12:01:41;7.80;;;6.73;;
70780;SDS011;59514;48.810;2.134;2023-06-22T12:04:06;6.63;;;6.03;;
70780;SDS011;59514;48.810;2.134;2023-06-22T12:06:32;7.10;;;6.40;;
70780;SDS011;59514;48.810;2.134;2023-06-22T12:08:57;6.95;;;6.35;;
70780;SDS011;59514;48.810;2.134;2023-06-22T12:11:23;6.10;;;5.53;;
70780;SDS011;59514;48.810;2.134;2023-06-22T12:13:48;5.30;;;4.80;;
70780;SDS011;59514;48.810;2.134;2023-06-22T12:16:13;5.77;;;5.27;;
70780;SDS011;59514;48.810;2.134;2023-06-22T12:18:38;6.57;;;5.60;;
70780;SDS011;59514;48.810;2.134;2023-06-22T12:21:03;5.67;;;5.07;;
70780;SDS011;59514;48.810;2.134;2023-06-22T12:23:29;5.70;;;5.20;;
70780;SDS011;59514;48.810;2.134;2023-06-22T12:25:54;6.37;;;5.67;;
70780;SDS011;59514;48.810;2.134;2023-06-22T12:28:19;5.50;;;5.00;;
70780;SDS011;59514;48.810;2.134;2023-06-22T12:30:44;5.80;;;5.30;;
70780;SDS011;59514;48.810;2.134;2023-06-22T12:33:10;5.23;;;4.73;;
70780;SDS011;59514;48.810;2.134;2023-06-22T12:35:35;5.30;;;4.80;;
70780;SDS011;59514;48.810;2.134;2023-06-22T12:38:00;6.87;;;5.90;;
70780;SDS011;59514;48.810;2.134;2023-06-22T12:40:25;6.63;;;5.67;;
70780;SDS011;59514;48.810;2.134;2023-06-22T12:42:50;5.33;;;4.90;;
70780;SDS011;59514;48.810;2.134;2023-06-22T12:45:16;6.23;;;5.40;;
70780;SDS011;59514;48.810;2.134;2023-06-22T12:47:41;5.80;;;5.27;;
70780;SDS011;59514;48.810;2.134;2023-06-22T12:50:06;4.97;;;4.50;;
70780;SDS011;59514;48.810;2.134;2023-06-22T12:52:32;5.22;;;4.70;;
70780;SDS011;59514;48.810;2.134;2023-06-22T12:54:57;5.28;;;4.80;;
70780;SDS011;59514;48.810;2.134;2023-06-22T12:57:22;5.50;;;5.00;;
70780;SDS011;59514;48.810;2.134;2023-06-22T12:59:48;5.03;;;4.63;;
70780;SDS011;59514;48.810;2.134;2023-06-22T13:02:13;5.60;;;5.10;;
70780;SDS011;59514;48.810;2.134;2023-06-22T13:04:39;7.00;;;6.30;;
70780;SDS011;59514;48.810;2.134;2023-06-22T13:07:04;6.47;;;4.93;;
70780;SDS011;59514;48.810;2.134;2023-06-22T13:09:29;5.53;;;5.03;;
70780;SDS011;59514;48.810;2.134;2023-06-22T13:11:55;6.30;;;5.70;;
70780;SDS011;59514;48.810;2.134;2023-06-22T13:14:20;7.60;;;6.90;;
70780;SDS011;59514;48.810;2.134;2023-06-22T13:16:45;6.17;;;5.57;;
70780;SDS011;59514;48.810;2.134;2023-06-22T13:19:10;6.90;;;6.20;;
70780;SDS011;59514;48.810;2.134;2023-06-22T13:21:36;5.97;;;5.50;;
70780;SDS011;59514;48.810;2.134;2023-06-22T13:24:01;6.70;;;6.00;;
70780;SDS011;59514;48.810;2.134;2023-06-22T13:26:26;6.67;;;6.03;;
70780;SDS011;59514;48.810;2.134;2023-06-22T13:28:53;7.55;;;6.75;;
70780;SDS011;59514;48.810;2.134;2023-06-22T13:31:18;6.00;;;5.45;;
70780;SDS011;59514;48.810;2.134;2023-06-22T13:33:44;6.03;;;5.53;;
70780;SDS011;59514;48.810;2.134;2023-06-22T13:36:12;7.05;;;5.75;;
70780;SDS011;59514;48.810;2.134;2023-06-22T13:38:37;6.73;;;6.13;;
70780;SDS011;59514;48.810;2.134;2023-06-22T13:41:03;6.20;;;5.60;;
70780;SDS011;59514;48.810;2.134;2023-06-22T13:43:29;6.35;;;5.75;;
70780;SDS011;59514;48.810;2.134;2023-06-22T13:45:54;6.20;;;5.37;;
70780;SDS011;59514;48.810;2.134;2023-06-22T13:48:19;6.17;;;5.57;;
70780;SDS011;59514;48.810;2.134;2023-06-22T13:50:44;5.77;;;5.27;;
70780;SDS011;59514;48.810;2.134;2023-06-22T13:53:10;6.57;;;5.17;;
70780;SDS011;59514;48.810;2.134;2023-06-22T13:55:35;5.00;;;4.60;;
70780;SDS011;59514;48.810;2.134;2023-06-22T13:58:00;6.27;;;4.60;;
70780;SDS011;59514;48.810;2.134;2023-06-22T14:00:25;5.47;;;4.60;;
70780;SDS011;59514;48.810;2.134;2023-06-22T14:02:50;5.63;;;4.97;;
70780;SDS011;59514;48.810;2.134;2023-06-22T14:05:16;4.35;;;3.95;;
70780;SDS011;59514;48.810;2.134;2023-06-22T14:07:41;4.45;;;4.05;;
70780;SDS011;59514;48.810;2.134;2023-06-22T14:10:07;5.70;;;4.47;;
70780;SDS011;59514;48.810;2.134;2023-06-22T14:12:32;3.97;;;3.58;;
70780;SDS011;59514;48.810;2.134;2023-06-22T14:14:57;4.13;;;3.73;;
70780;SDS011;59514;48.810;2.134;2023-06-22T14:17:22;4.67;;;3.70;;
70780;SDS011;59514;48.810;2.134;2023-06-22T14:19:50;3.95;;;3.47;;
70780;SDS011;59514;48.810;2.134;2023-06-22T14:22:17;4.50;;;3.80;;
70780;SDS011;59514;48.810;2.134;2023-06-22T14:24:43;4.28;;;3.88;;
70780;SDS011;59514;48.810;2.134;2023-06-22T14:27:08;3.60;;;3.30;;
70780;SDS011;59514;48.810;2.134;2023-06-22T14:29:34;4.25;;;3.45;;
70780;SDS011;59514;48.810;2.134;2023-06-22T14:31:59;3.97;;;3.65;;
70780;SDS011;59514;48.810;2.134;2023-06-22T14:34:24;4.27;;;3.37;;
70780;SDS011;59514;48.810;2.134;2023-06-22T14:36:50;3.67;;;3.10;;
70780;SDS011;59514;48.810;2.134;2023-06-22T14:39:15;4.93;;;3.60;;